Time;durP1;ratioP1;P1;durP2;ratioP2;P2;SDS_P1;SDS_P2;PMS_P1;PMS_P2;Temp;Humidity;BMP_temperature;BMP_pressure;BME280_temperature;BME280_humidity;BME280_pressure;Samples;Min_cycle;Max_cycle;Signal;HPM_P1;HPM_P2
2023/06/20 00:02:21;;;;;;;9.47;7.13;;;19.70;99.90;;;;;;5101607;28;20487;-74
2023/06/20 00:04:47;;;;;;;9.60;7.07;;;19.70;99.90;;;;;;5104361;28;20413;-74
2023/06/20 00:07:13;;;;;;;9.70;7.07;;;19.70;99.90;;;;;;5100795;28;20553;-74
2023/06/20 00:09:39;;;;;;;10.63;7.32;;;19.60;99.90;;;;;;5089609;28;20393;-74
2023/06/20 00:12:05;;;;;;;9.07;7.03;;;19.60;99.90;;;;;;5090015;28;20452;-74
2023/06/20 00:14:31;;;;;;;11.67;7.90;;;19.60;99.90;;;;;;5087215;28;20995;-74
2023/06/20 00:16:59;;;;;;;10.52;7.63;;;19.50;99.90;;;;;;5089467;28;20413;-73
2023/06/20 00:19:27;;;;;;;12.43;7.50;;;19.60;99.90;;;;;;5090300;28;20485;-77
2023/06/20 00:21:53;;;;;;;12.27;7.80;;;19.50;99.90;;;;;;5087955;28;20572;-74
2023/06/20 00:24:18;;;;;;;10.98;7.30;;;19.50;99.90;;;;;;5089393;28;20500;-73
2023/06/20 00:26:44;;;;;;;11.77;7.20;;;19.50;99.90;;;;;;5089461;28;20414;-74
2023/06/20 00:29:10;;;;;;;9.98;7.32;;;19.50;99.90;;;;;;5090030;28;20408;-74
2023/06/20 00:31:38;;;;;;;11.02;7.03;;;19.40;99.90;;;;;;5089563;28;20577;-73
2023/06/20 00:34:04;;;;;;;9.98;7.20;;;19.40;99.90;;;;;;5088947;28;20493;-74
2023/06/20 00:36:29;;;;;;;10.68;7.57;;;19.40;99.90;;;;;;5089113;28;20413;-74
2023/06/20 00:38:55;;;;;;;12.60;7.80;;;19.40;99.90;;;;;;5088619;28;20455;-74
2023/06/20 00:41:21;;;;;;;13.30;8.93;;;19.40;99.90;;;;;;5087998;28;20811;-74
2023/06/20 00:43:48;;;;;;;13.43;10.02;;;19.30;99.90;;;;;;5088466;28;20410;-74
2023/06/20 00:46:19;;;;;;;13.32;10.85;;;19.20;99.90;;;;;;5088661;28;20828;-74
2023/06/20 00:48:49;;;;;;;13.27;10.57;;;19.20;99.90;;;;;;5070885;28;20417;-74
2023/06/20 00:51:15;;;;;;;17.83;11.15;;;19.20;99.90;;;;;;5088780;28;20402;-74
2023/06/20 00:53:42;;;;;;;14.77;10.80;;;19.20;99.90;;;;;;5089053;28;20409;-74
2023/06/20 00:56:10;;;;;;;14.60;10.80;;;19.20;99.90;;;;;;5088803;28;20431;-74
2023/06/20 00:58:36;;;;;;;13.68;10.40;;;19.20;99.90;;;;;;5088300;28;20459;-74
2023/06/20 01:01:01;;;;;;;15.20;10.63;;;19.20;99.90;;;;;;5090180;28;20429;-74
2023/06/20 01:03:27;;;;;;;12.90;9.27;;;19.20;99.90;;;;;;5077950;28;20485;-74
2023/06/20 01:06:10;;;;;;;13.10;8.98;;;19.20;99.90;;;;;;5087327;28;20418;-74
2023/06/20 01:09:01;;;;;;;12.00;8.68;;;19.10;99.90;;;;;;5082853;28;20402;-74
2023/06/20 01:11:58;;;;;;;11.15;8.00;;;19.10;99.90;;;;;;5089677;28;20408;-74
2023/06/20 01:14:42;;;;;;;10.88;7.97;;;19.10;99.90;;;;;;5089740;28;21017;-74
2023/06/20 01:17:26;;;;;;;10.35;7.60;;;19.00;99.90;;;;;;5089787;28;20446;-74
2023/06/20 01:20:14;;;;;;;11.25;7.70;;;19.00;99.90;;;;;;5088768;28;20778;-73
2023/06/20 01:22:57;;;;;;;9.85;7.25;;;19.00;99.90;;;;;;5089068;28;20414;-74
2023/06/20 01:25:55;;;;;;;10.93;7.90;;;19.00;99.90;;;;;;5078549;28;20412;-74
2023/06/20 01:28:44;;;;;;;14.18;7.97;;;19.00;99.90;;;;;;5088740;28;20489;-75
2023/06/20 01:31:12;;;;;;;15.07;8.40;;;18.90;99.90;;;;;;5090534;28;20412;-74
2023/06/20 01:33:55;;;;;;;13.77;9.75;;;18.90;99.90;;;;;;5090604;28;20410;-74
2023/06/20 01:36:22;;;;;;;14.65;10.80;;;18.90;99.90;;;;;;5089185;28;20505;-74
2023/06/20 01:38:53;;;;;;;17.98;13.25;;;19.00;99.90;;;;;;5088027;28;20939;-74
2023/06/20 01:41:22;;;;;;;19.73;14.68;;;18.90;99.90;;;;;;5084858;28;20479;-74
2023/06/20 01:43:49;;;;;;;19.30;13.98;;;18.90;99.90;;;;;;5091330;28;20952;-74
2023/06/20 01:46:18;;;;;;;19.05;13.50;;;18.90;99.90;;;;;;5091818;28;20863;-74
2023/06/20 01:48:47;;;;;;;17.30;11.40;;;18.90;99.90;;;;;;5073474;28;20421;-74
2023/06/20 01:51:14;;;;;;;13.68;9.85;;;18.90;99.90;;;;;;5089776;28;20410;-74
2023/06/20 01:53:41;;;;;;;12.73;8.60;;;18.90;99.90;;;;;;5090113;28;20402;-74
2023/06/20 01:56:09;;;;;;;12.90;8.40;;;18.90;99.90;;;;;;5088363;28;20923;-74
2023/06/20 01:58:35;;;;;;;11.90;8.00;;;18.90;99.90;;;;;;5087728;28;20398;-74
2023/06/20 02:01:02;;;;;;;12.75;7.78;;;18.90;99.90;;;;;;5087547;28;20845;-74
2023/06/20 02:03:30;;;;;;;8.63;6.97;;;18.90;99.90;;;;;;5088064;28;20399;-74
2023/06/20 02:05:58;;;;;;;11.93;7.28;;;18.90;99.90;;;;;;5087752;28;20887;-74
2023/06/20 02:08:24;;;;;;;10.30;6.93;;;18.90;99.90;;;;;;5086737;28;20767;-74
2023/06/20 02:10:51;;;;;;;9.70;7.10;;;18.80;99.90;;;;;;5087631;28;20410;-75
2023/06/20 02:13:18;;;;;;;11.73;7.78;;;18.80;99.90;;;;;;5087947;28;21058;-74
2023/06/20 02:15:45;;;;;;;11.30;7.60;;;18.80;99.90;;;;;;5088248;28;20836;-74
2023/06/20 02:18:11;;;;;;;12.27;8.57;;;18.80;99.90;;;;;;5087978;28;20436;-74
2023/06/20 02:20:37;;;;;;;11.87;8.10;;;18.80;99.90;;;;;;5085898;28;20434;-73
2023/06/20 02:23:07;;;;;;;14.27;9.13;;;18.80;99.90;;;;;;5086340;28;20412;-74
2023/06/20 02:25:34;;;;;;;11.63;8.90;;;18.80;99.90;;;;;;5086572;28;20409;-74
2023/06/20 02:28:01;;;;;;;12.85;8.75;;;18.80;99.90;;;;;;5088622;28;20407;-74
2023/06/20 02:30:30;;;;;;;13.77;9.35;;;18.80;99.90;;;;;;5088986;28;20408;-74
2023/06/20 02:32:58;;;;;;;12.70;9.60;;;18.80;99.90;;;;;;5089254;28;20445;-74
2023/06/20 02:35:25;;;;;;;12.30;10.00;;;18.80;99.90;;;;;;5089069;28;20440;-74
2023/06/20 02:37:55;;;;;;;13.63;10.03;;;18.80;99.90;;;;;;5090420;28;20409;-74
2023/06/20 02:40:24;;;;;;;15.25;10.35;;;18.80;99.90;;;;;;5087090;28;20410;-74
2023/06/20 02:42:50;;;;;;;15.27;10.70;;;18.80;99.90;;;;;;5089063;28;20895;-74
2023/06/20 02:45:17;;;;;;;16.10;10.55;;;18.80;99.90;;;;;;5087283;28;20421;-74
2023/06/20 02:48:10;;;;;;;16.40;11.73;;;18.80;99.90;;;;;;5088715;28;20452;-74
2023/06/20 02:50:58;;;;;;;19.70;14.15;;;18.80;99.90;;;;;;5086431;28;20458;-74
2023/06/20 02:53:43;;;;;;;22.60;16.95;;;18.80;99.90;;;;;;5081474;28;20410;-74
2023/06/20 02:56:12;;;;;;;21.13;16.80;;;18.80;99.90;;;;;;5088026;28;20460;-74
2023/06/20 02:58:43;;;;;;;25.35;18.88;;;18.70;99.90;;;;;;5089601;28;20495;-74
2023/06/20 03:01:10;;;;;;;25.00;18.55;;;18.70;99.90;;;;;;5087649;28;20545;-74
2023/06/20 03:03:43;;;;;;;23.80;19.33;;;18.70;99.90;;;;;;5087325;28;20459;-74
2023/06/20 03:06:10;;;;;;;24.95;19.38;;;18.60;99.90;;;;;;5075971;28;20806;-74
2023/06/20 03:08:40;;;;;;;25.35;21.25;;;18.70;99.90;;;;;;5092625;28;20403;-74
2023/06/20 03:11:07;;;;;;;28.02;21.15;;;18.70;99.90;;;;;;5088056;28;20414;-74
2023/06/20 03:13:32;;;;;;;25.30;19.63;;;18.60;99.90;;;;;;5092396;28;20393;-74
2023/06/20 03:15:58;;;;;;;25.50;18.83;;;18.60;99.90;;;;;;5088855;28;20795;-74
2023/06/20 03:18:24;;;;;;;23.40;19.38;;;18.60;99.90;;;;;;5091546;28;20478;-74
2023/06/20 03:20:50;;;;;;;23.30;18.10;;;18.60;99.90;;;;;;5090445;28;20422;-74
2023/06/20 03:23:16;;;;;;;23.02;17.15;;;18.60;99.90;;;;;;5094087;28;20440;-74
2023/06/20 03:25:42;;;;;;;19.98;14.70;;;18.60;99.90;;;;;;5089755;28;20421;-74
2023/06/20 03:28:07;;;;;;;17.25;13.10;;;18.60;99.90;;;;;;5092961;28;20909;-74
2023/06/20 03:30:33;;;;;;;16.52;11.88;;;18.50;99.90;;;;;;5090223;28;20486;-74
2023/06/20 03:32:59;;;;;;;16.05;11.85;;;18.60;99.90;;;;;;5094280;28;20901;-74
2023/06/20 03:35:25;;;;;;;16.05;11.93;;;18.60;99.90;;;;;;5089411;28;20398;-74
2023/06/20 03:37:50;;;;;;;15.57;12.53;;;18.50;99.90;;;;;;5094584;28;20769;-74
2023/06/20 03:40:16;;;;;;;14.95;12.07;;;18.50;99.90;;;;;;5085299;28;20475;-74
2023/06/20 03:42:42;;;;;;;17.07;12.23;;;18.60;99.90;;;;;;5095192;28;20491;-74
2023/06/20 03:45:08;;;;;;;16.42;12.57;;;18.60;99.90;;;;;;5091633;28;20967;-74
2023/06/20 03:47:34;;;;;;;15.57;12.95;;;18.50;99.90;;;;;;5068723;28;20417;-74
2023/06/20 03:49:59;;;;;;;16.33;11.73;;;18.60;99.90;;;;;;5090207;28;20926;-74
2023/06/20 03:52:25;;;;;;;15.88;11.65;;;18.60;99.90;;;;;;5093620;28;20408;-74
2023/06/20 03:54:51;;;;;;;16.20;12.23;;;18.60;99.90;;;;;;5090462;28;20418;-74
2023/06/20 03:57:16;;;;;;;15.45;12.68;;;18.70;99.90;;;;;;5092653;28;20396;-74
2023/06/20 03:59:42;;;;;;;16.20;12.30;;;18.60;99.90;;;;;;5089609;28;20406;-74
2023/06/20 04:02:08;;;;;;;16.37;12.53;;;18.60;99.90;;;;;;5071826;28;20442;-74
2023/06/20 04:04:33;;;;;;;16.73;12.85;;;18.60;99.90;;;;;;5090098;28;20434;-74
2023/06/20 04:06:59;;;;;;;16.47;12.27;;;18.70;99.90;;;;;;5089839;28;20775;-74
2023/06/20 04:09:26;;;;;;;19.30;13.30;;;18.70;99.90;;;;;;5089935;28;20413;-74
2023/06/20 04:11:52;;;;;;;17.95;12.75;;;18.70;99.90;;;;;;5095521;28;20815;-74
2023/06/20 04:14:18;;;;;;;16.20;13.15;;;18.70;99.90;;;;;;5093211;28;20756;-74
2023/06/20 04:16:44;;;;;;;16.05;12.40;;;18.70;99.90;;;;;;5096955;28;20410;-74
2023/06/20 04:19:10;;;;;;;15.70;11.40;;;18.80;99.90;;;;;;5088392;28;20398;-74
2023/06/20 04:21:35;;;;;;;15.57;11.27;;;18.90;99.90;;;;;;5091748;28;20434;-74
2023/06/20 04:24:01;;;;;;;15.77;11.43;;;18.90;99.90;;;;;;5089954;28;20451;-74
2023/06/20 04:26:29;;;;;;;13.95;10.50;;;18.90;99.90;;;;;;5088143;28;20903;-74
2023/06/20 04:28:55;;;;;;;16.57;12.63;;;18.90;99.90;;;;;;5085565;28;20471;-74
2023/06/20 04:31:21;;;;;;;16.77;11.97;;;18.90;99.90;;;;;;5093241;28;20416;-74
2023/06/20 04:33:47;;;;;;;19.40;15.23;;;19.00;99.90;;;;;;5088334;28;20421;-74
2023/06/20 04:36:13;;;;;;;18.73;14.38;;;19.00;99.90;;;;;;5093800;28;20890;-74
2023/06/20 04:38:40;;;;;;;18.67;14.57;;;19.00;99.90;;;;;;5076427;28;20406;-73
2023/06/20 04:41:05;;;;;;;16.50;12.80;;;19.00;99.90;;;;;;5098381;28;20436;-74
2023/06/20 04:43:32;;;;;;;13.75;10.93;;;19.00;99.90;;;;;;5094635;28;20796;-73
2023/06/20 04:45:58;;;;;;;13.63;10.45;;;19.00;99.90;;;;;;5098558;28;20507;-74
2023/06/20 04:48:28;;;;;;;14.93;10.07;;;19.00;99.90;;;;;;5093596;28;20533;-74
2023/06/20 04:50:55;;;;;;;15.45;10.90;;;19.10;99.90;;;;;;5088826;28;20527;-74
2023/06/20 04:53:26;;;;;;;14.25;10.07;;;19.10;99.90;;;;;;5091693;28;20398;-74
2023/06/20 04:55:52;;;;;;;15.02;9.48;;;19.10;99.90;;;;;;5092397;28;20402;-74
2023/06/20 04:58:18;;;;;;;12.10;9.00;;;19.20;99.90;;;;;;5091080;28;20394;-74
2023/06/20 05:00:44;;;;;;;12.87;8.87;;;19.20;99.90;;;;;;5092523;28;20447;-73
2023/06/20 05:03:09;;;;;;;13.20;9.15;;;19.20;99.90;;;;;;5091319;28;20410;-74
2023/06/20 05:05:35;;;;;;;14.20;8.70;;;19.30;99.90;;;;;;5090639;28;20477;-73
2023/06/20 05:08:00;;;;;;;17.02;11.73;;;19.30;99.90;;;;;;5088818;28;20812;-74
2023/06/20 05:10:27;;;;;;;17.25;10.88;;;19.40;99.90;;;;;;5090271;28;20843;-75
2023/06/20 05:12:52;;;;;;;18.80;12.25;;;19.40;99.90;;;;;;5091681;28;20422;-74
2023/06/20 05:15:23;;;;;;;16.13;11.27;;;19.50;99.90;;;;;;5092948;28;20438;-74
2023/06/20 05:17:50;;;;;;;16.83;10.63;;;19.50;99.90;;;;;;5089023;28;20397;-71
2023/06/20 05:20:16;;;;;;;15.55;10.18;;;19.50;99.90;;;;;;5090789;28;20469;-72
2023/06/20 05:22:41;;;;;;;13.20;9.97;;;19.60;99.90;;;;;;5092641;28;20409;-74
2023/06/20 05:25:07;;;;;;;13.43;8.85;;;19.60;99.90;;;;;;5091462;28;20501;-73
2023/06/20 05:27:33;;;;;;;14.20;8.83;;;19.60;99.90;;;;;;5087963;28;20406;-74
2023/06/20 05:29:58;;;;;;;13.70;8.83;;;19.70;99.90;;;;;;5093703;28;20421;-74
2023/06/20 05:32:24;;;;;;;11.88;8.80;;;19.70;99.90;;;;;;5091564;28;20414;-74
2023/06/20 05:34:49;;;;;;;14.33;10.13;;;19.70;99.90;;;;;;5077155;28;20435;-74
2023/06/20 05:37:16;;;;;;;12.50;9.43;;;19.70;99.90;;;;;;5087651;28;20425;-74
2023/06/20 05:39:41;;;;;;;19.50;11.48;;;19.80;99.90;;;;;;5096423;28;20534;-74
2023/06/20 05:42:07;;;;;;;15.55;11.15;;;19.80;99.90;;;;;;5091555;28;20469;-74
2023/06/20 05:44:33;;;;;;;14.50;11.23;;;19.80;99.90;;;;;;5096316;28;20408;-74
2023/06/20 05:46:58;;;;;;;16.13;11.07;;;19.80;99.90;;;;;;5090452;28;20402;-74
2023/06/20 05:49:24;;;;;;;16.57;10.40;;;19.80;99.90;;;;;;5092486;28;20487;-74
2023/06/20 05:51:50;;;;;;;17.70;12.33;;;19.90;99.90;;;;;;5090740;28;20413;-74
2023/06/20 05:54:15;;;;;;;20.30;12.55;;;19.90;99.90;;;;;;5091841;28;20416;-74
2023/06/20 05:56:41;;;;;;;18.53;11.73;;;19.90;99.90;;;;;;5090315;28;20891;-74
2023/06/20 05:59:06;;;;;;;16.33;12.35;;;19.90;99.90;;;;;;5092451;28;20410;-74
2023/06/20 06:01:32;;;;;;;17.58;12.40;;;20.00;99.90;;;;;;5091801;28;20966;-74
2023/06/20 06:03:58;;;;;;;13.97;10.50;;;20.00;99.90;;;;;;5091785;28;20393;-74
2023/06/20 06:06:26;;;;;;;12.45;9.70;;;20.00;99.90;;;;;;5072937;28;20402;-74
2023/06/20 06:08:52;;;;;;;14.75;9.60;;;20.00;99.90;;;;;;5089558;28;20417;-74
2023/06/20 06:11:17;;;;;;;13.13;9.33;;;20.00;99.90;;;;;;5089513;28;20418;-74
2023/06/20 06:13:43;;;;;;;14.60;8.95;;;20.10;99.90;;;;;;5092156;28;20402;-74
2023/06/20 06:16:09;;;;;;;13.00;9.20;;;20.20;99.90;;;;;;5090925;28;20406;-74
2023/06/20 06:18:34;;;;;;;13.17;8.90;;;20.20;99.90;;;;;;5093744;28;20400;-74
2023/06/20 06:21:00;;;;;;;14.88;10.52;;;20.30;99.90;;;;;;5090394;28;20495;-74
2023/06/20 06:23:26;;;;;;;13.83;10.23;;;20.40;99.90;;;;;;5095101;28;20408;-74
2023/06/20 06:25:52;;;;;;;15.35;10.45;;;20.50;99.90;;;;;;5091993;28;20401;-74
2023/06/20 06:28:18;;;;;;;14.67;10.67;;;20.50;99.90;;;;;;5094705;28;20415;-74
2023/06/20 06:30:43;;;;;;;17.10;11.13;;;20.60;99.90;;;;;;5090402;28;20416;-74
2023/06/20 06:33:10;;;;;;;13.32;9.75;;;20.70;99.90;;;;;;5095733;28;20503;-74
2023/06/20 06:35:36;;;;;;;11.75;8.63;;;20.80;99.90;;;;;;5092565;28;20394;-74
2023/06/20 06:38:03;;;;;;;12.48;8.77;;;20.80;99.90;;;;;;5085406;28;20405;-74
2023/06/20 06:40:29;;;;;;;13.85;8.55;;;20.90;99.90;;;;;;5091782;28;20975;-74
2023/06/20 06:42:55;;;;;;;10.57;8.23;;;21.00;99.90;;;;;;5095492;28;20411;-74
2023/06/20 06:45:21;;;;;;;12.05;8.60;;;21.10;99.90;;;;;;5091349;28;20478;-74
2023/06/20 06:47:46;;;;;;;11.07;7.77;;;21.20;99.90;;;;;;5096206;28;20464;-74
2023/06/20 06:50:12;;;;;;;13.07;8.80;;;21.30;99.90;;;;;;5088028;28;20398;-74
2023/06/20 06:52:39;;;;;;;13.60;8.85;;;21.40;99.90;;;;;;5089620;28;20406;-74
2023/06/20 06:55:05;;;;;;;14.88;8.38;;;21.40;99.90;;;;;;5087616;28;20449;-74
2023/06/20 06:57:30;;;;;;;11.55;8.65;;;21.40;99.90;;;;;;5088415;28;20417;-74
2023/06/20 06:59:56;;;;;;;14.13;9.63;;;21.60;99.90;;;;;;5090117;28;20401;-74
2023/06/20 07:02:22;;;;;;;12.35;8.50;;;21.60;99.90;;;;;;5088237;28;20462;-74
2023/06/20 07:04:48;;;;;;;11.47;8.60;;;21.60;99.90;;;;;;5090320;28;20413;-74
2023/06/20 07:07:13;;;;;;;13.35;8.25;;;21.60;99.90;;;;;;5091564;28;20776;-74
2023/06/20 07:09:39;;;;;;;13.63;9.53;;;21.60;99.90;;;;;;5088921;28;20473;-74
2023/06/20 07:12:05;;;;;;;13.93;9.13;;;21.70;99.70;;;;;;5091076;28;20810;-74
2023/06/20 07:14:33;;;;;;;11.35;8.73;;;21.70;99.80;;;;;;5090281;28;20406;-74
2023/06/20 07:16:59;;;;;;;13.45;9.73;;;21.70;99.80;;;;;;5091982;28;20413;-74
2023/06/20 07:19:25;;;;;;;16.63;9.10;;;21.80;99.90;;;;;;5090137;28;20402;-74
2023/06/20 07:21:50;;;;;;;12.97;9.00;;;21.90;99.90;;;;;;5092497;28;20430;-74
2023/06/20 07:24:16;;;;;;;11.35;8.57;;;22.00;99.90;;;;;;5091854;28;20405;-74
2023/06/20 07:26:41;;;;;;;10.93;8.32;;;22.10;99.90;;;;;;5096759;28;20410;-74
2023/06/20 07:29:07;;;;;;;14.10;8.43;;;22.20;99.80;;;;;;5092782;28;20525;-74
2023/06/20 07:31:33;;;;;;;12.85;8.75;;;22.30;99.50;;;;;;5096815;28;20404;-74
2023/06/20 07:33:58;;;;;;;11.20;7.47;;;22.40;99.00;;;;;;5091516;28;20500;-74
2023/06/20 07:36:24;;;;;;;11.63;7.20;;;22.40;98.90;;;;;;5094987;28;20402;-74
2023/06/20 07:38:49;;;;;;;12.10;7.60;;;22.60;98.90;;;;;;5093340;28;20397;-74
2023/06/20 07:41:15;;;;;;;10.52;7.82;;;22.70;98.80;;;;;;5095716;28;20436;-74
2023/06/20 07:43:41;;;;;;;12.27;7.53;;;23.00;98.50;;;;;;5090109;28;20418;-74
2023/06/20 07:46:06;;;;;;;11.77;7.50;;;23.10;98.30;;;;;;5106451;28;20417;-74
2023/06/20 07:48:32;;;;;;;9.10;7.55;;;23.30;98.40;;;;;;5093937;28;20405;-75
2023/06/20 07:50:57;;;;;;;10.18;8.10;;;23.40;98.40;;;;;;5090920;28;20440;-75
2023/06/20 07:53:23;;;;;;;12.43;8.30;;;23.40;98.30;;;;;;5089894;28;20497;-74
2023/06/20 07:55:49;;;;;;;10.35;8.05;;;23.40;98.40;;;;;;5088822;28;20417;-74
2023/06/20 07:58:15;;;;;;;10.10;8.00;;;23.40;98.40;;;;;;5089619;28;20397;-74
2023/06/20 08:00:40;;;;;;;11.63;8.18;;;23.40;98.30;;;;;;5090477;28;20487;-74
2023/06/20 08:03:07;;;;;;;12.87;9.00;;;23.40;98.50;;;;;;5089466;28;20828;-74
2023/06/20 08:05:32;;;;;;;12.57;9.02;;;23.30;98.10;;;;;;5090956;28;20401;-74
2023/06/20 08:07:58;;;;;;;12.60;9.70;;;23.30;98.10;;;;;;5089733;28;20455;-74
2023/06/20 08:10:24;;;;;;;12.18;9.15;;;23.30;98.10;;;;;;5090732;28;20410;-74
2023/06/20 08:12:49;;;;;;;13.33;9.67;;;23.30;98.20;;;;;;5090219;28;20485;-74
2023/06/20 08:15:15;;;;;;;15.55;10.30;;;23.20;98.20;;;;;;5090466;28;20394;-74
2023/06/20 08:17:41;;;;;;;11.93;9.60;;;23.20;98.10;;;;;;5089371;28;20406;-74
2023/06/20 08:20:09;;;;;;;13.63;9.97;;;23.10;98.10;;;;;;5091309;28;20406;-74
2023/06/20 08:22:35;;;;;;;11.55;9.05;;;23.00;98.20;;;;;;5089810;28;21165;-74
2023/06/20 08:25:00;;;;;;;15.07;9.88;;;23.00;98.50;;;;;;5088932;28;20405;-74
2023/06/20 08:27:26;;;;;;;12.57;9.97;;;22.90;98.50;;;;;;5089860;28;20459;-75
2023/06/20 08:29:52;;;;;;;14.53;8.97;;;22.90;98.60;;;;;;5088726;28;20416;-74
2023/06/20 08:32:17;;;;;;;13.55;9.70;;;23.00;98.70;;;;;;5088936;28;20406;-75
2023/06/20 08:34:43;;;;;;;11.17;9.03;;;23.00;98.80;;;;;;5089173;28;20809;-74
2023/06/20 08:37:09;;;;;;;14.47;9.70;;;23.00;98.70;;;;;;5089304;28;20501;-74
2023/06/20 08:39:35;;;;;;;10.80;9.00;;;23.00;98.80;;;;;;5088972;28;20485;-74
2023/06/20 08:42:01;;;;;;;13.38;9.27;;;23.00;99.00;;;;;;5088414;28;20434;-74
2023/06/20 08:44:27;;;;;;;11.77;9.93;;;23.10;99.10;;;;;;5071790;28;20417;-74
2023/06/20 08:46:57;;;;;;;12.20;9.67;;;23.20;98.90;;;;;;5088892;28;20821;-74
2023/06/20 08:49:24;;;;;;;13.65;10.25;;;23.30;98.90;;;;;;5090225;28;20406;-74
2023/06/20 08:51:49;;;;;;;10.90;9.80;;;23.30;98.60;;;;;;5090055;28;20402;-74
2023/06/20 08:54:18;;;;;;;13.02;9.82;;;23.30;98.70;;;;;;5092111;28;20463;-74
2023/06/20 08:56:44;;;;;;;12.15;9.93;;;23.40;98.70;;;;;;5092275;28;20791;-74
2023/06/20 08:59:10;;;;;;;14.00;10.10;;;23.40;98.60;;;;;;5095031;28;20421;-74
2023/06/20 09:01:35;;;;;;;12.17;9.80;;;23.50;98.70;;;;;;5093114;28;20433;-72
2023/06/20 09:04:02;;;;;;;12.32;9.27;;;23.60;98.60;;;;;;5095861;28;20426;-72
2023/06/20 09:06:37;;;;;;;14.25;10.10;;;23.60;98.60;;;;;;5093042;28;20390;-74
2023/06/20 09:09:13;;;;;;;13.32;9.38;;;23.70;98.70;;;;;;5085584;28;20418;-74
2023/06/20 09:11:39;;;;;;;13.02;9.05;;;23.70;98.70;;;;;;5088334;28;20409;-74
2023/06/20 09:14:05;;;;;;;12.93;9.07;;;23.70;98.70;;;;;;5089502;28;20934;-74
2023/06/20 09:16:31;;;;;;;13.40;8.95;;;23.60;98.70;;;;;;5088896;28;20406;-74
2023/06/20 09:19:00;;;;;;;13.07;9.60;;;23.60;98.80;;;;;;5088277;28;20437;-74
2023/06/20 09:21:26;;;;;;;12.33;9.40;;;23.70;98.90;;;;;;5088751;28;20435;-74
2023/06/20 09:24:03;;;;;;;12.18;8.70;;;23.80;99.10;;;;;;5093866;28;20402;-74
2023/06/20 09:26:30;;;;;;;10.40;8.75;;;24.00;98.90;;;;;;5088159;28;20490;-74
2023/06/20 09:29:12;;;;;;;11.98;10.07;;;24.20;98.80;;;;;;5088377;28;20537;-75
2023/06/20 09:31:47;;;;;;;13.60;10.80;;;24.40;98.30;;;;;;5084287;28;20420;-74
2023/06/20 09:34:16;;;;;;;13.98;9.90;;;24.40;98.40;;;;;;5088481;28;20418;-74
2023/06/20 09:36:42;;;;;;;13.27;10.27;;;24.50;98.40;;;;;;5070828;28;20410;-74
2023/06/20 09:39:21;;;;;;;12.80;9.63;;;24.60;98.00;;;;;;5091635;28;20487;-74
2023/06/20 09:41:49;;;;;;;11.27;10.10;;;24.60;98.00;;;;;;5096330;28;20430;-74
2023/06/20 09:44:19;;;;;;;12.93;9.60;;;24.70;98.00;;;;;;5098380;28;20408;-74
2023/06/20 09:46:45;;;;;;;12.73;9.57;;;24.80;97.80;;;;;;5093713;28;20406;-74
2023/06/20 09:49:13;;;;;;;13.55;9.38;;;24.80;97.90;;;;;;5091653;28;20384;-74
2023/06/20 09:51:47;;;;;;;9.80;8.50;;;25.10;98.00;;;;;;5088297;28;20910;-75
2023/06/20 09:54:15;;;;;;;12.07;9.07;;;25.30;98.10;;;;;;5090682;28;20459;-74
2023/06/20 09:56:47;;;;;;;11.13;8.10;;;25.60;97.40;;;;;;5091924;28;20398;-75
2023/06/20 09:59:15;;;;;;;10.85;8.35;;;25.80;97.50;;;;;;5088098;28;20468;-75
2023/06/20 10:01:41;;;;;;;9.10;8.07;;;26.10;97.30;;;;;;5088222;28;20422;-75
2023/06/20 10:04:07;;;;;;;10.03;8.27;;;26.30;96.90;;;;;;5087988;28;20495;-75
2023/06/20 10:06:37;;;;;;;11.30;8.63;;;26.40;96.70;;;;;;5090626;28;21306;-75
2023/06/20 10:09:06;;;;;;;10.27;8.40;;;26.40;96.20;;;;;;5093610;28;20460;-75
2023/06/20 10:11:32;;;;;;;10.18;7.93;;;26.30;95.80;;;;;;5088205;28;20956;-74
2023/06/20 10:13:58;;;;;;;9.43;7.55;;;26.30;96.10;;;;;;5088231;28;20997;-75
2023/06/20 10:16:28;;;;;;;11.60;8.20;;;26.30;96.20;;;;;;5088201;28;20421;-75
2023/06/20 10:18:53;;;;;;;11.95;9.50;;;26.40;96.00;;;;;;5088068;28;20406;-74
2023/06/20 10:21:54;;;;;;;9.25;7.85;;;26.40;95.80;;;;;;5087757;28;20482;-75
2023/06/20 10:24:20;;;;;;;12.75;9.18;;;26.60;95.50;;;;;;5082893;28;20726;-74
2023/06/20 10:26:56;;;;;;;13.43;9.60;;;26.70;95.60;;;;;;5088748;28;20398;-75
2023/06/20 10:29:22;;;;;;;10.75;9.57;;;26.80;95.80;;;;;;5087650;28;20899;-75
2023/06/20 10:32:06;;;;;;;12.15;8.70;;;26.90;95.50;;;;;;5088982;28;20398;-75
2023/06/20 10:34:36;;;;;;;11.40;9.30;;;26.90;95.70;;;;;;5091840;28;20436;-75
2023/06/20 10:37:38;;;;;;;11.63;9.52;;;27.00;95.30;;;;;;5090163;28;20417;-75
2023/06/20 10:40:06;;;;;;;10.57;9.00;;;26.90;94.90;;;;;;5086889;28;21065;-75
2023/06/20 10:42:36;;;;;;;11.23;9.70;;;26.80;95.20;;;;;;5092145;28;20431;-74
2023/06/20 10:45:22;;;;;;;10.88;9.77;;;26.70;95.20;;;;;;5087313;28;20402;-74
2023/06/20 10:47:49;;;;;;;10.43;9.10;;;26.80;95.50;;;;;;5086901;28;20478;-75
2023/06/20 10:50:16;;;;;;;9.75;8.45;;;26.80;95.30;;;;;;5087786;28;20498;-75
2023/06/20 10:52:41;;;;;;;10.73;9.63;;;26.90;95.60;;;;;;5092337;28;20437;-75
2023/06/20 10:55:27;;;;;;;10.48;9.48;;;26.90;95.40;;;;;;5089025;28;20438;-74
2023/06/20 10:57:54;;;;;;;11.10;9.70;;;27.10;95.50;;;;;;5091231;28;20914;-75
2023/06/20 11:00:21;;;;;;;10.85;9.73;;;27.10;94.90;;;;;;5095610;28;20413;-75
2023/06/20 11:02:54;;;;;;;10.03;8.80;;;27.10;95.10;;;;;;5083185;28;20866;-75
2023/06/20 11:05:28;;;;;;;10.27;8.60;;;27.30;95.30;;;;;;5095877;28;20420;-74
2023/06/20 11:07:59;;;;;;;11.18;9.20;;;27.50;95.20;;;;;;5073604;28;20410;-75
2023/06/20 11:10:37;;;;;;;11.95;9.77;;;27.80;95.10;;;;;;5092565;28;20443;-75
2023/06/20 11:13:05;;;;;;;10.50;9.18;;;28.00;94.70;;;;;;5091545;28;21221;-75
2023/06/20 11:15:33;;;;;;;10.43;9.32;;;28.10;94.80;;;;;;5074359;28;20445;-75
2023/06/20 11:18:04;;;;;;;9.90;8.90;;;28.30;94.70;;;;;;5095161;28;20961;-75
2023/06/20 11:20:35;;;;;;;9.27;8.35;;;28.50;94.00;;;;;;5093522;28;20410;-75
2023/06/20 11:23:05;;;;;;;9.77;8.40;;;28.70;94.00;;;;;;5092840;28;20055;-75
2023/06/20 11:25:31;;;;;;;;;;;29.00;94.10;;;;;;5082788;28;20059;-75
2023/06/20 11:28:09;;;;;;;10.25;7.68;;;29.50;93.60;;;;;;5093535;28;19923;-75
2023/06/20 11:30:37;;;;;;;9.68;8.68;;;29.60;93.20;;;;;;5091467;28;20417;-75
2023/06/20 11:33:08;;;;;;;9.77;8.80;;;29.60;92.50;;;;;;5090306;28;20445;-75
2023/06/20 11:35:51;;;;;;;11.52;7.63;;;29.50;92.30;;;;;;5093280;28;20044;-75
2023/06/20 11:38:19;;;;;;;;;;;29.60;92.40;;;;;;5091880;28;20119;-75
2023/06/20 11:40:45;;;;;;;11.85;8.20;;;29.70;91.80;;;;;;5091618;28;19924;-75
2023/06/20 11:43:19;;;;;;;9.33;8.10;;;29.80;91.30;;;;;;5090957;28;20737;-75
2023/06/20 11:45:45;;;;;;;9.35;7.82;;;29.70;91.50;;;;;;5089817;28;20429;-75
2023/06/20 11:48:14;;;;;;;9.15;8.25;;;29.70;91.90;;;;;;5092020;28;20397;-75
2023/06/20 11:50:41;;;;;;;;;;;29.70;90.70;;;;;;5090075;28;20052;-76
2023/06/20 11:53:20;;;;;;;8.32;7.35;;;29.60;90.70;;;;;;5092871;28;20385;-75
2023/06/20 11:55:49;;;;;;;10.15;7.85;;;29.70;91.30;;;;;;5092635;28;20567;-75
2023/06/20 11:58:15;;;;;;;;;;;29.80;91.10;;;;;;5093637;28;20131;-75
2023/06/20 12:00:45;;;;;;;;;;;29.90;90.10;;;;;;5093781;28;20384;-75
2023/06/20 12:03:10;;;;;;;;;;;29.70;89.90;;;;;;5093241;28;19945;-75
2023/06/20 12:05:37;;;;;;;;;;;29.50;90.00;;;;;;5092683;28;19920;-75
2023/06/20 12:08:03;;;;;;;;;;;29.40;90.10;;;;;;5092424;28;19920;-75
2023/06/20 12:10:29;;;;;;;;;;;29.50;90.70;;;;;;5091386;28;19920;-75
2023/06/20 12:12:54;;;;;;;;;;;29.80;90.60;;;;;;5092203;28;19939;-75
2023/06/20 12:15:20;;;;;;;;;;;30.00;90.70;;;;;;5093807;28;19920;-75
2023/06/20 12:17:45;;;;;;;;;;;30.30;90.30;;;;;;5075764;28;20440;-75
2023/06/20 12:20:11;;;;;;;;;;;30.40;89.10;;;;;;5092459;28;19919;-75
2023/06/20 12:22:37;;;;;;;8.80;7.28;;;30.50;88.40;;;;;;5091725;28;19927;-75
2023/06/20 12:25:04;;;;;;;10.60;9.48;;;30.60;90.30;;;;;;5092410;28;20559;-75
2023/06/20 12:27:29;;;;;;;9.43;8.48;;;30.70;87.90;;;;;;5092129;28;20458;-75
2023/06/20 12:29:55;;;;;;;;;;;30.70;90.00;;;;;;5091851;28;20044;-75
2023/06/20 12:32:20;;;;;;;;;;;30.70;89.40;;;;;;5093783;28;19932;-75
2023/06/20 12:34:46;;;;;;;;;;;30.90;89.50;;;;;;5094334;28;19931;-75
2023/06/20 12:37:11;;;;;;;;;;;31.20;88.70;;;;;;5092001;28;20011;-75
2023/06/20 12:39:37;;;;;;;;;;;31.40;87.50;;;;;;5092529;28;20275;-75
2023/06/20 12:42:03;;;;;;;;;;;31.40;87.50;;;;;;5093683;28;20003;-75
2023/06/20 12:44:28;;;;;;;;;;;31.50;87.30;;;;;;5075759;28;19926;-75
2023/06/20 12:46:54;;;;;;;;;;;31.70;87.10;;;;;;5093073;28;20282;-75